Time;durP1;ratioP1;P1;durP2;ratioP2;P2;SDS_P1;SDS_P2;PMS_P1;PMS_P2;Temp;Humidity;BMP_temperature;BMP_pressure;BME280_temperature;BME280_humidity;BME280_pressure;Samples;Min_cycle;Max_cycle;Signal;HPM_P1;HPM_P2
2023/07/29 00:01:00;;;;;;;3.70;3.40;;;;;;;;;;5033015;28;20892;-66
2023/07/29 00:03:29;;;;;;;4.63;4.33;;;;;;;;;;5031873;28;20977;-66
2023/07/29 00:05:58;;;;;;;3.40;3.20;;;;;;;;;;5025072;28;20624;-66
2023/07/29 00:08:26;;;;;;;3.60;3.33;;;;;;;;;;5026553;28;21216;-66
2023/07/29 00:10:54;;;;;;;4.73;3.37;;;;;;;;;;5013380;28;20656;-68
2023/07/29 00:13:22;;;;;;;3.90;3.70;;;;;;;;;;5014117;28;20628;-67
2023/07/29 00:15:50;;;;;;;4.03;3.73;;;;;;;;;;5024681;28;20631;-67
2023/07/29 00:18:20;;;;;;;6.10;3.70;;;;;;;;;;5032938;28;20666;-68
2023/07/29 00:20:48;;;;;;;4.00;3.80;;;;;;;;;;5032727;28;20624;-67
2023/07/29 00:23:16;;;;;;;4.43;4.13;;;;;;;;;;5015364;28;21033;-66
2023/07/29 00:29:51;;;;;;;4.60;4.20;;;;;;;;;;5031638;28;20555;-67
2023/07/29 00:32:19;;;;;;;3.87;3.67;;;;;;;;;;5032752;28;20634;-67
2023/07/29 00:34:49;;;;;;;5.80;4.60;;;;;;;;;;5029132;28;21237;-66
2023/07/29 00:37:17;;;;;;;3.60;3.30;;;;;;;;;;5015150;28;20660;-66
2023/07/29 00:39:47;;;;;;;3.60;3.30;;;;;;;;;;5032315;28;20595;-66
2023/07/29 00:42:15;;;;;;;4.20;3.80;;;;;;;;;;5015227;28;20632;-66
2023/07/29 00:44:44;;;;;;;4.07;3.77;;;;;;;;;;5032318;28;20598;-66
2023/07/29 00:47:13;;;;;;;4.50;4.20;;;;;;;;;;5032887;28;20628;-66
2023/07/29 00:49:41;;;;;;;4.23;3.83;;;;;;;;;;5032118;28;20628;-67
2023/07/29 00:52:12;;;;;;;3.50;3.20;;;;;;;;;;5032638;28;20603;-66
2023/07/29 00:54:40;;;;;;;12.03;4.43;;;;;;;;;;5032614;28;20608;-66
2023/07/29 00:57:09;;;;;;;3.50;3.30;;;;;;;;;;5014225;28;20659;-66
2023/07/29 00:59:38;;;;;;;3.47;3.27;;;;;;;;;;5014427;28;20652;-66
2023/07/29 01:02:06;;;;;;;3.77;3.47;;;;;;;;;;5031702;28;20638;-66
2023/07/29 01:04:34;;;;;;;3.63;3.20;;;;;;;;;;5031480;28;21108;-66
2023/07/29 01:07:08;;;;;;;3.53;3.33;;;;;;;;;;5013696;28;20624;-65
2023/07/29 01:09:42;;;;;;;3.30;3.10;;;;;;;;;;5014589;28;20553;-66
2023/07/29 01:12:13;;;;;;;3.17;2.97;;;;;;;;;;5002170;28;20735;-66
2023/07/29 01:14:46;;;;;;;3.40;3.20;;;;;;;;;;5004530;28;20621;-66
2023/07/29 01:17:15;;;;;;;3.77;3.53;;;;;;;;;;5011562;28;20640;-66
2023/07/29 01:19:45;;;;;;;6.83;3.20;;;;;;;;;;4997479;28;20606;-67
2023/07/29 01:22:15;;;;;;;4.13;3.80;;;;;;;;;;5012187;28;20629;-66
2023/07/29 01:24:44;;;;;;;3.63;3.33;;;;;;;;;;5012004;28;20639;-67
2023/07/29 01:27:13;;;;;;;4.10;3.80;;;;;;;;;;5011386;28;20599;-66
2023/07/29 01:29:42;;;;;;;3.60;3.40;;;;;;;;;;5010848;28;20629;-66
2023/07/29 01:32:13;;;;;;;3.70;3.40;;;;;;;;;;5011913;28;20621;-66
2023/07/29 01:34:43;;;;;;;6.63;4.33;;;;;;;;;;5012153;28;20617;-66
2023/07/29 01:37:13;;;;;;;5.07;4.70;;;;;;;;;;5011776;28;20653;-66
2023/07/29 01:39:41;;;;;;;4.70;4.40;;;;;;;;;;5010609;28;21004;-66
2023/07/29 01:42:13;;;;;;;5.70;4.60;;;;;;;;;;4990111;28;20616;-66
2023/07/29 01:44:42;;;;;;;4.50;4.10;;;;;;;;;;5000738;28;20617;-66
2023/07/29 01:47:10;;;;;;;4.50;4.20;;;;;;;;;;5011709;28;20598;-66
2023/07/29 01:49:38;;;;;;;4.93;4.53;;;;;;;;;;5011855;28;20612;-66
2023/07/29 01:52:07;;;;;;;5.23;4.93;;;;;;;;;;5011186;28;21178;-67
2023/07/29 01:54:35;;;;;;;5.63;5.23;;;;;;;;;;5011351;28;20624;-66
2023/07/29 01:57:03;;;;;;;6.03;5.53;;;;;;;;;;5010023;28;20746;-66
2023/07/29 01:59:33;;;;;;;6.00;5.50;;;;;;;;;;5011168;28;20625;-66
2023/07/29 02:02:01;;;;;;;6.43;5.80;;;;;;;;;;5010574;28;21202;-66
2023/07/29 02:04:29;;;;;;;7.57;6.17;;;;;;;;;;5009483;28;20631;-66
2023/07/29 02:06:58;;;;;;;6.40;5.80;;;;;;;;;;5010499;28;20679;-65
2023/07/29 02:09:27;;;;;;;7.43;6.67;;;;;;;;;;5011318;28;20625;-66
2023/07/29 02:11:55;;;;;;;7.60;6.30;;;;;;;;;;5029430;28;20698;-66
2023/07/29 02:14:23;;;;;;;8.93;6.93;;;;;;;;;;5013780;28;20642;-66
2023/07/29 02:16:53;;;;;;;6.20;5.70;;;;;;;;;;5013373;28;20624;-66
2023/07/29 02:19:21;;;;;;;6.07;5.40;;;;;;;;;;5031170;28;20608;-67
2023/07/29 02:21:49;;;;;;;6.87;6.27;;;;;;;;;;5030651;28;20638;-66
2023/07/29 02:24:18;;;;;;;6.60;5.57;;;;;;;;;;5030748;28;21205;-67
2023/07/29 02:26:46;;;;;;;6.50;5.90;;;;;;;;;;5030630;28;20624;-66
2023/07/29 02:29:14;;;;;;;5.53;5.03;;;;;;;;;;5029979;28;20931;-66
2023/07/29 02:31:44;;;;;;;8.00;6.17;;;;;;;;;;5030684;28;20630;-66
2023/07/29 02:34:13;;;;;;;6.50;5.87;;;;;;;;;;5023875;28;20686;-66
2023/07/29 02:36:42;;;;;;;7.33;6.53;;;;;;;;;;5012379;28;21170;-66
2023/07/29 02:39:10;;;;;;;6.47;5.80;;;;;;;;;;5013092;28;21031;-66
2023/07/29 02:41:38;;;;;;;6.57;5.97;;;;;;;;;;5013412;28;20628;-67
2023/07/29 02:44:06;;;;;;;8.00;5.83;;;;;;;;;;5031111;28;21082;-66
2023/07/29 02:46:35;;;;;;;5.97;5.33;;;;;;;;;;5030617;28;20634;-66
2023/07/29 02:49:03;;;;;;;6.40;5.80;;;;;;;;;;5026530;28;20628;-66
2023/07/29 02:51:33;;;;;;;13.43;6.30;;;;;;;;;;4996584;28;21205;-66
2023/07/29 02:54:01;;;;;;;6.53;5.93;;;;;;;;;;5032302;28;20628;-66
2023/07/29 02:56:30;;;;;;;6.93;6.30;;;;;;;;;;5016592;28;20631;-67
2023/07/29 02:58:59;;;;;;;6.10;5.60;;;;;;;;;;5031650;28;21036;-65
2023/07/29 03:01:32;;;;;;;6.33;5.73;;;;;;;;;;4996594;28;20593;-66
2023/07/29 03:04:00;;;;;;;6.43;5.83;;;;;;;;;;4999123;28;20992;-66
2023/07/29 03:06:29;;;;;;;9.37;6.10;;;;;;;;;;5016207;28;20700;-66
2023/07/29 03:08:58;;;;;;;6.53;5.93;;;;;;;;;;5034638;28;21155;-66
2023/07/29 03:11:27;;;;;;;6.27;5.67;;;;;;;;;;5015878;28;20663;-66
2023/07/29 03:13:55;;;;;;;6.50;6.00;;;;;;;;;;5015084;28;20653;-66
2023/07/29 03:16:23;;;;;;;7.00;6.40;;;;;;;;;;5033989;28;20638;-67
2023/07/29 03:18:55;;;;;;;7.33;6.43;;;;;;;;;;5016795;28;20636;-66
2023/07/29 03:21:24;;;;;;;5.90;5.50;;;;;;;;;;5034078;28;20666;-67
2023/07/29 03:23:52;;;;;;;6.77;5.97;;;;;;;;;;5034630;28;20620;-69
2023/07/29 03:26:22;;;;;;;6.17;5.50;;;;;;;;;;5016200;28;20620;-67
2023/07/29 03:28:50;;;;;;;6.90;6.23;;;;;;;;;;5016363;28;20606;-67
2023/07/29 03:31:18;;;;;;;8.30;5.93;;;;;;;;;;5007342;28;20640;-67
2023/07/29 03:33:47;;;;;;;7.33;5.83;;;;;;;;;;5016775;28;20628;-67
2023/07/29 03:36:16;;;;;;;7.30;5.70;;;;;;;;;;5032970;28;20718;-66
2023/07/29 03:38:45;;;;;;;9.33;6.00;;;;;;;;;;5033904;28;20656;-67
2023/07/29 03:41:13;;;;;;;11.90;5.93;;;;;;;;;;5032342;28;20634;-67
2023/07/29 03:43:42;;;;;;;7.40;6.10;;;;;;;;;;5015656;28;20621;-67
2023/07/29 03:46:11;;;;;;;9.07;5.87;;;;;;;;;;5019023;28;20615;-67
2023/07/29 03:48:39;;;;;;;6.67;6.13;;;;;;;;;;5016271;28;20653;-66
2023/07/29 03:51:07;;;;;;;7.43;5.90;;;;;;;;;;5015740;28;20991;-67
2023/07/29 03:53:35;;;;;;;6.60;6.00;;;;;;;;;;5016515;28;20612;-67
2023/07/29 03:56:04;;;;;;;10.60;6.53;;;;;;;;;;5015931;28;20608;-67
2023/07/29 03:58:32;;;;;;;6.53;5.90;;;;;;;;;;5026728;28;20661;-66
2023/07/29 04:01:01;;;;;;;7.13;5.77;;;;;;;;;;4995848;28;20613;-67
2023/07/29 04:03:30;;;;;;;8.50;6.57;;;;;;;;;;5000017;28;20641;-66
2023/07/29 04:05:58;;;;;;;14.43;5.70;;;;;;;;;;4994806;28;20608;-67
2023/07/29 04:08:27;;;;;;;15.83;7.03;;;;;;;;;;4998211;28;20619;-67
2023/07/29 04:10:55;;;;;;;9.77;7.47;;;;;;;;;;4995305;28;20683;-66
2023/07/29 04:13:23;;;;;;;6.97;6.20;;;;;;;;;;4990326;28;20624;-67
2023/07/29 04:15:51;;;;;;;7.43;6.57;;;;;;;;;;5015139;28;20635;-66
2023/07/29 04:18:21;;;;;;;7.97;6.50;;;;;;;;;;5017521;28;20659;-66
2023/07/29 04:20:50;;;;;;;7.47;6.80;;;;;;;;;;5016411;28;21278;-66
2023/07/29 04:23:18;;;;;;;10.43;7.10;;;;;;;;;;5034195;28;20627;-66
2023/07/29 04:25:47;;;;;;;8.20;7.40;;;;;;;;;;5033808;28;20627;-66
2023/07/29 04:28:15;;;;;;;8.37;7.57;;;;;;;;;;5007619;28;21003;-66
2023/07/29 04:30:43;;;;;;;7.20;6.60;;;;;;;;;;5034104;28;20707;-65
2023/07/29 04:33:11;;;;;;;8.63;7.33;;;;;;;;;;5003383;28;20980;-65
2023/07/29 04:35:41;;;;;;;12.30;6.43;;;;;;;;;;5024148;28;20704;-65
2023/07/29 04:38:09;;;;;;;7.53;6.83;;;;;;;;;;5015817;28;20628;-66
2023/07/29 04:40:37;;;;;;;7.43;6.70;;;;;;;;;;5032277;28;20619;-66
2023/07/29 04:43:06;;;;;;;8.87;7.97;;;;;;;;;;5028289;28;20653;-66
2023/07/29 04:45:34;;;;;;;7.90;6.30;;;;;;;;;;5004583;28;20624;-66
2023/07/29 04:48:02;;;;;;;7.50;6.90;;;;;;;;;;5014782;28;20624;-65
2023/07/29 04:50:30;;;;;;;7.80;6.80;;;;;;;;;;5032379;28;20628;-66
2023/07/29 04:53:00;;;;;;;6.80;6.20;;;;;;;;;;5032817;28;20980;-65
2023/07/29 04:55:29;;;;;;;9.13;6.40;;;;;;;;;;5014880;28;20620;-65
2023/07/29 04:57:57;;;;;;;8.30;6.37;;;;;;;;;;5031858;28;20638;-65
2023/07/29 05:00:25;;;;;;;6.70;5.73;;;;;;;;;;5032086;28;20997;-65
2023/07/29 05:02:53;;;;;;;7.13;6.37;;;;;;;;;;5031118;28;21165;-66
2023/07/29 05:05:21;;;;;;;6.47;5.97;;;;;;;;;;5031563;28;21212;-66
2023/07/29 05:07:50;;;;;;;6.90;6.30;;;;;;;;;;5015036;28;20627;-65
2023/07/29 05:10:20;;;;;;;10.13;7.43;;;;;;;;;;5011268;28;20664;-65
2023/07/29 05:12:48;;;;;;;7.07;6.57;;;;;;;;;;4998760;28;20629;-66
2023/07/29 05:15:18;;;;;;;7.80;6.23;;;;;;;;;;5003100;28;20637;-66
2023/07/29 05:17:46;;;;;;;7.60;6.90;;;;;;;;;;5003780;28;20651;-66
2023/07/29 05:20:15;;;;;;;10.00;7.67;;;;;;;;;;5012234;28;20672;-66
2023/07/29 05:22:43;;;;;;;8.23;7.53;;;;;;;;;;5011181;28;20695;-65
2023/07/29 05:25:11;;;;;;;8.53;7.63;;;;;;;;;;5011200;28;21233;-66
2023/07/29 05:27:41;;;;;;;8.07;7.37;;;;;;;;;;5011597;28;20620;-66
2023/07/29 05:30:09;;;;;;;11.40;8.50;;;;;;;;;;5012403;28;20663;-65
2023/07/29 05:32:38;;;;;;;8.37;7.67;;;;;;;;;;5009969;28;20631;-65
2023/07/29 05:35:08;;;;;;;9.50;8.50;;;;;;;;;;4990970;28;20645;-65
2023/07/29 05:37:37;;;;;;;9.53;8.73;;;;;;;;;;5010395;28;20625;-66
2023/07/29 05:40:05;;;;;;;10.20;8.60;;;;;;;;;;5011797;28;20723;-66
2023/07/29 05:42:34;;;;;;;11.97;9.13;;;;;;;;;;5011016;28;20632;-66
2023/07/29 05:45:03;;;;;;;10.10;9.13;;;;;;;;;;5011603;28;20629;-65
2023/07/29 05:47:31;;;;;;;8.60;7.90;;;;;;;;;;5010424;28;20621;-66
2023/07/29 05:50:01;;;;;;;9.07;8.33;;;;;;;;;;5012133;28;20632;-65
2023/07/29 05:52:30;;;;;;;11.33;8.27;;;;;;;;;;5011667;28;21177;-66
2023/07/29 05:54:58;;;;;;;9.97;8.83;;;;;;;;;;5012023;28;20635;-65
2023/07/29 05:57:26;;;;;;;9.77;8.67;;;;;;;;;;5010968;28;20625;-65
2023/07/29 05:59:54;;;;;;;8.27;7.47;;;;;;;;;;5011756;28;21246;-66
2023/07/29 06:02:24;;;;;;;8.20;7.47;;;;;;;;;;5010602;28;20620;-66
2023/07/29 06:04:54;;;;;;;8.17;7.53;;;;;;;;;;5009277;28;20981;-66
2023/07/29 06:07:22;;;;;;;8.13;7.40;;;;;;;;;;5010452;28;20625;-66
2023/07/29 06:09:50;;;;;;;8.27;7.60;;;;;;;;;;5012410;28;21178;-66
2023/07/29 06:12:18;;;;;;;7.37;6.77;;;;;;;;;;5020396;28;20643;-66
2023/07/29 06:14:46;;;;;;;6.40;5.90;;;;;;;;;;5013563;28;20620;-65
2023/07/29 06:17:17;;;;;;;8.63;6.03;;;;;;;;;;5013083;28;20620;-66
2023/07/29 06:19:47;;;;;;;5.80;5.30;;;;;;;;;;5028985;28;20669;-65
2023/07/29 06:22:15;;;;;;;6.77;6.07;;;;;;;;;;5013054;28;20628;-65
2023/07/29 06:24:43;;;;;;;6.00;5.60;;;;;;;;;;5012833;28;20642;-65
2023/07/29 06:27:11;;;;;;;6.00;5.43;;;;;;;;;;5012474;28;20967;-65
2023/07/29 06:29:40;;;;;;;8.00;5.97;;;;;;;;;;5018526;28;20627;-66
2023/07/29 06:32:08;;;;;;;4.37;4.10;;;;;;;;;;5035831;28;20639;-65
2023/07/29 06:34:36;;;;;;;6.43;5.53;;;;;;;;;;5035094;28;20631;-65
2023/07/29 06:37:06;;;;;;;4.63;4.33;;;;;;;;;;5037105;28;21001;-66
2023/07/29 06:39:35;;;;;;;8.33;5.10;;;;;;;;;;5029862;28;20671;-66
2023/07/29 06:42:03;;;;;;;5.63;4.20;;;;;;;;;;5019117;28;21191;-65
2023/07/29 06:44:31;;;;;;;4.23;3.93;;;;;;;;;;5036138;28;20993;-66
2023/07/29 06:47:00;;;;;;;4.20;3.90;;;;;;;;;;5037393;28;20623;-65
2023/07/29 06:49:28;;;;;;;4.00;3.80;;;;;;;;;;5017408;28;20626;-66
2023/07/29 06:51:56;;;;;;;4.23;3.80;;;;;;;;;;5031665;28;20693;-65
2023/07/29 06:54:27;;;;;;;3.67;3.47;;;;;;;;;;5035831;28;20661;-65
2023/07/29 06:56:55;;;;;;;8.93;4.10;;;;;;;;;;5036891;28;20668;-65
2023/07/29 06:59:24;;;;;;;3.30;3.10;;;;;;;;;;5037411;28;20631;-65
2023/07/29 07:01:52;;;;;;;3.07;2.77;;;;;;;;;;5035317;28;20628;-66
2023/07/29 07:04:20;;;;;;;4.40;2.57;;;;;;;;;;5035006;28;20628;-66
2023/07/29 07:06:49;;;;;;;2.93;2.60;;;;;;;;;;5033492;28;21134;-67
2023/07/29 07:09:17;;;;;;;3.30;2.20;;;;;;;;;;5036755;28;20624;-66
2023/07/29 07:11:46;;;;;;;2.60;2.50;;;;;;;;;;5029919;28;20675;-66
2023/07/29 07:14:14;;;;;;;2.90;2.70;;;;;;;;;;5037179;28;20649;-66
2023/07/29 07:16:43;;;;;;;2.80;2.60;;;;;;;;;;5016900;28;20624;-66
2023/07/29 07:19:11;;;;;;;2.70;2.50;;;;;;;;;;5035755;28;21291;-65
2023/07/29 07:21:39;;;;;;;2.70;2.50;;;;;;;;;;5030799;28;21262;-66
2023/07/29 07:24:08;;;;;;;2.47;2.27;;;;;;;;;;5035251;28;21139;-66
2023/07/29 07:26:36;;;;;;;2.30;1.93;;;;;;;;;;5035770;28;20639;-66
2023/07/29 07:29:06;;;;;;;2.20;2.10;;;;;;;;;;5036064;28;20627;-66
2023/07/29 07:31:35;;;;;;;2.43;2.33;;;;;;;;;;5035984;28;20616;-66
2023/07/29 07:34:03;;;;;;;1.80;1.70;;;;;;;;;;5018094;28;21212;-67
2023/07/29 07:36:32;;;;;;;2.47;1.93;;;;;;;;;;5035187;28;20623;-66
2023/07/29 07:39:00;;;;;;;2.87;2.00;;;;;;;;;;5036075;28;20627;-66
2023/07/29 07:41:28;;;;;;;4.73;2.20;;;;;;;;;;5032622;28;20659;-66
2023/07/29 07:43:57;;;;;;;2.93;1.97;;;;;;;;;;5032140;28;20669;-67
2023/07/29 07:46:26;;;;;;;2.80;2.50;;;;;;;;;;5033313;28;20980;-66
2023/07/29 07:48:54;;;;;;;2.40;2.20;;;;;;;;;;5028073;28;21013;-66
2023/07/29 07:51:23;;;;;;;5.50;2.27;;;;;;;;;;5031385;28;21113;-66
2023/07/29 07:53:51;;;;;;;2.80;2.53;;;;;;;;;;5028750;28;20654;-66
2023/07/29 07:56:19;;;;;;;2.73;2.50;;;;;;;;;;5028675;28;20640;-66
2023/07/29 07:58:47;;;;;;;2.53;2.43;;;;;;;;;;5014617;28;20613;-66
2023/07/29 08:01:15;;;;;;;2.00;1.90;;;;;;;;;;5026183;28;20729;-66
2023/07/29 08:03:45;;;;;;;5.03;2.40;;;;;;;;;;5031520;28;20636;-67
2023/07/29 08:06:13;;;;;;;2.13;1.63;;;;;;;;;;5032149;28;20628;-65
2023/07/29 08:08:41;;;;;;;2.60;2.00;;;;;;;;;;5027823;28;20662;-65
2023/07/29 08:11:09;;;;;;;6.07;2.30;;;;;;;;;;5017431;28;21070;-65
2023/07/29 08:13:37;;;;;;;2.83;2.63;;;;;;;;;;5029706;28;20631;-65
2023/07/29 08:16:05;;;;;;;2.47;2.30;;;;;;;;;;5022645;28;20641;-66
2023/07/29 08:18:33;;;;;;;3.53;2.27;;;;;;;;;;5016729;28;20644;-65
2023/07/29 08:21:03;;;;;;;5.00;2.40;;;;;;;;;;5017747;28;20668;-65
2023/07/29 08:23:32;;;;;;;2.43;2.20;;;;;;;;;;5023903;28;20667;-65
2023/07/29 08:26:01;;;;;;;2.60;2.40;;;;;;;;;;5021155;28;21201;-65
2023/07/29 08:28:30;;;;;;;2.90;2.70;;;;;;;;;;5026551;28;20647;-65
2023/07/29 08:30:58;;;;;;;2.37;2.17;;;;;;;;;;5032531;28;21197;-65
2023/07/29 08:33:26;;;;;;;3.07;2.27;;;;;;;;;;5027055;28;20631;-65
2023/07/29 08:35:54;;;;;;;2.40;2.30;;;;;;;;;;5031087;28;20728;-66
2023/07/29 08:38:24;;;;;;;2.67;2.47;;;;;;;;;;5033180;28;20616;-66
2023/07/29 08:40:55;;;;;;;2.40;2.30;;;;;;;;;;5030054;28;20682;-66
2023/07/29 08:43:26;;;;;;;4.77;1.87;;;;;;;;;;5033486;28;20939;-65
2023/07/29 08:45:54;;;;;;;2.67;2.00;;;;;;;;;;5033461;28;20592;-65
2023/07/29 08:48:25;;;;;;;2.50;2.00;;;;;;;;;;5033627;28;20616;-65
2023/07/29 08:50:54;;;;;;;2.60;2.40;;;;;;;;;;5008514;28;20624;-66
2023/07/29 08:53:23;;;;;;;3.23;2.07;;;;;;;;;;5031709;28;20996;-65
2023/07/29 08:55:53;;;;;;;1.70;1.60;;;;;;;;;;5032948;28;20962;-66
2023/07/29 08:58:22;;;;;;;1.57;1.43;;;;;;;;;;5032702;28;20616;-66
2023/07/29 09:00:50;;;;;;;3.10;1.90;;;;;;;;;;5031349;28;20666;-65
2023/07/29 09:03:18;;;;;;;1.70;1.60;;;;;;;;;;5020386;28;20633;-65
2023/07/29 09:05:47;;;;;;;2.30;1.70;;;;;;;;;;5003535;28;20665;-66
2023/07/29 09:08:15;;;;;;;2.10;2.00;;;;;;;;;;5032159;28;20639;-66
2023/07/29 09:10:45;;;;;;;2.83;1.73;;;;;;;;;;5031629;28;21076;-65
2023/07/29 09:13:13;;;;;;;1.80;1.70;;;;;;;;;;5028378;28;20644;-65
2023/07/29 09:15:42;;;;;;;2.03;1.60;;;;;;;;;;5031366;28;20628;-67
2023/07/29 09:18:11;;;;;;;2.60;1.90;;;;;;;;;;5032312;28;20623;-68
2023/07/29 09:20:39;;;;;;;1.73;1.50;;;;;;;;;;5031233;28;21090;-67
2023/07/29 09:23:09;;;;;;;1.80;1.70;;;;;;;;;;5032009;28;21170;-68
2023/07/29 09:25:38;;;;;;;1.73;1.63;;;;;;;;;;5031402;28;20626;-67
2023/07/29 09:28:11;;;;;;;2.07;1.90;;;;;;;;;;5031678;28;20608;-67
2023/07/29 09:30:40;;;;;;;1.87;1.77;;;;;;;;;;5030751;28;21157;-66
2023/07/29 09:33:08;;;;;;;2.97;1.57;;;;;;;;;;5026983;28;20632;-67
2023/07/29 09:35:37;;;;;;;1.57;1.47;;;;;;;;;;5030347;28;20634;-67
2023/07/29 09:38:06;;;;;;;2.03;1.63;;;;;;;;;;5019965;28;20720;-67
2023/07/29 09:40:38;;;;;;;2.50;1.77;;;;;;;;;;5024355;28;21070;-67
2023/07/29 09:43:07;;;;;;;2.27;1.73;;;;;;;;;;5029512;28;20599;-67
2023/07/29 09:45:37;;;;;;;1.63;1.53;;;;;;;;;;5027745;28;20636;-66
2023/07/29 09:48:09;;;;;;;4.67;1.90;;;;;;;;;;5025061;28;20628;-66
2023/07/29 09:50:37;;;;;;;1.60;1.50;;;;;;;;;;5028797;28;20683;-65
2023/07/29 09:53:08;;;;;;;3.10;1.40;;;;;;;;;;5016757;28;20685;-66
2023/07/29 09:55:37;;;;;;;1.90;1.80;;;;;;;;;;5030794;28;20669;-66
2023/07/29 09:58:08;;;;;;;2.30;1.80;;;;;;;;;;5029304;28;20620;-65
2023/07/29 10:00:38;;;;;;;2.10;2.00;;;;;;;;;;5010555;28;20591;-66
2023/07/29 10:03:07;;;;;;;1.83;1.70;;;;;;;;;;5008247;28;20587;-65
2023/07/29 10:05:35;;;;;;;1.63;1.53;;;;;;;;;;5026205;28;20647;-65
2023/07/29 10:08:04;;;;;;;2.30;2.20;;;;;;;;;;5010825;28;20613;-65
2023/07/29 10:10:32;;;;;;;1.53;1.43;;;;;;;;;;5010596;28;20657;-65
2023/07/29 10:13:01;;;;;;;1.70;1.60;;;;;;;;;;5024996;28;20625;-66
2023/07/29 10:15:31;;;;;;;1.60;1.50;;;;;;;;;;5030454;28;20628;-65
2023/07/29 10:18:01;;;;;;;2.60;1.57;;;;;;;;;;5030566;28;20612;-65
2023/07/29 10:20:30;;;;;;;1.73;1.60;;;;;;;;;;5030016;28;21266;-65
2023/07/29 10:22:59;;;;;;;2.47;1.80;;;;;;;;;;5030563;28;21255;-65
2023/07/29 10:25:29;;;;;;;1.53;1.43;;;;;;;;;;5024764;28;20971;-65
2023/07/29 10:27:58;;;;;;;1.57;1.47;;;;;;;;;;5029817;28;20647;-65
2023/07/29 10:30:27;;;;;;;1.30;1.20;;;;;;;;;;5029944;28;20634;-64
2023/07/29 10:32:56;;;;;;;1.37;1.27;;;;;;;;;;5019044;28;20629;-64
2023/07/29 10:35:25;;;;;;;1.63;1.33;;;;;;;;;;5026703;28;20624;-65
2023/07/29 10:37:54;;;;;;;1.60;1.50;;;;;;;;;;5030745;28;20626;-62
2023/07/29 10:40:22;;;;;;;1.83;1.73;;;;;;;;;;5035563;28;20706;-62
2023/07/29 10:43:03;;;;;;;2.20;2.10;;;;;;;;;;5017416;28;20652;-62
2023/07/29 10:45:38;;;;;;;3.47;2.13;;;;;;;;;;5034843;28;20661;-63
2023/07/29 10:48:08;;;;;;;2.60;2.37;;;;;;;;;;5034816;28;20652;-63
2023/07/29 10:50:38;;;;;;;2.37;2.27;;;;;;;;;;5030312;28;20728;-62
2023/07/29 10:53:06;;;;;;;1.80;1.70;;;;;;;;;;5015131;28;20696;-62
2023/07/29 10:55:36;;;;;;;2.17;2.07;;;;;;;;;;5020849;28;21188;-62
2023/07/29 10:58:08;;;;;;;2.20;2.10;;;;;;;;;;5014285;28;20620;-62
2023/07/29 11:00:36;;;;;;;3.53;2.17;;;;;;;;;;5018777;28;20711;-62
2023/07/29 11:03:07;;;;;;;2.37;2.27;;;;;;;;;;5022721;28;20683;-62
2023/07/29 11:05:50;;;;;;;1.70;1.60;;;;;;;;;;5033618;28;20691;-62
2023/07/29 11:08:22;;;;;;;1.70;1.60;;;;;;;;;;5033590;28;21055;-63
2023/07/29 11:11:04;;;;;;;2.00;1.90;;;;;;;;;;5033628;28;20733;-62
2023/07/29 11:13:33;;;;;;;1.77;1.67;;;;;;;;;;5017196;28;20677;-62
2023/07/29 11:16:01;;;;;;;4.03;1.80;;;;;;;;;;5039105;28;21213;-62
2023/07/29 11:18:30;;;;;;;2.00;1.90;;;;;;;;;;5038543;28;21063;-62
2023/07/29 11:21:00;;;;;;;3.87;1.60;;;;;;;;;;5039330;28;20707;-62
2023/07/29 11:23:32;;;;;;;3.27;1.60;;;;;;;;;;5038115;28;20664;-61
2023/07/29 11:26:01;;;;;;;2.60;1.80;;;;;;;;;;5038749;28;21224;-62
2023/07/29 11:28:29;;;;;;;3.10;1.33;;;;;;;;;;5038953;28;20699;-63
2023/07/29 11:30:58;;;;;;;2.37;1.50;;;;;;;;;;5039621;28;20691;-62
2023/07/29 11:33:28;;;;;;;1.70;1.60;;;;;;;;;;5039528;28;21062;-62
2023/07/29 11:35:56;;;;;;;2.50;1.10;;;;;;;;;;5039177;28;20615;-63
2023/07/29 11:38:26;;;;;;;1.70;1.60;;;;;;;;;;5021302;28;21053;-62
2023/07/29 11:40:57;;;;;;;1.40;1.30;;;;;;;;;;5031412;28;20636;-63
2023/07/29 11:43:26;;;;;;;2.40;1.93;;;;;;;;;;5028166;28;20982;-63
2023/07/29 11:45:55;;;;;;;2.03;1.93;;;;;;;;;;5032445;28;20616;-66
2023/07/29 11:48:29;;;;;;;2.57;2.47;;;;;;;;;;5018354;28;20628;-63
2023/07/29 11:50:58;;;;;;;2.60;2.50;;;;;;;;;;5032272;28;20611;-64
2023/07/29 11:53:29;;;;;;;2.93;2.83;;;;;;;;;;5036710;28;20794;-62
2023/07/29 11:55:58;;;;;;;3.03;2.93;;;;;;;;;;5031585;28;21188;-62
2023/07/29 11:58:26;;;;;;;4.43;4.23;;;;;;;;;;5031527;28;21057;-62
2023/07/29 12:00:54;;;;;;;4.77;4.37;;;;;;;;;;5025428;28;20674;-62
2023/07/29 12:03:23;;;;;;;6.60;6.30;;;;;;;;;;5032205;28;20655;-62
2023/07/29 12:05:51;;;;;;;5.70;5.50;;;;;;;;;;5034204;28;21176;-62
2023/07/29 12:08:20;;;;;;;6.27;5.73;;;;;;;;;;5035276;28;20643;-62
2023/07/29 12:10:49;;;;;;;5.87;5.63;;;;;;;;;;5033224;28;20658;-62
2023/07/29 12:13:18;;;;;;;7.57;7.33;;;;;;;;;;5016929;28;20623;-62
2023/07/29 12:15:46;;;;;;;7.50;7.20;;;;;;;;;;5034262;28;20653;-62
2023/07/29 12:18:14;;;;;;;8.83;8.30;;;;;;;;;;5027986;28;20716;-63
2023/07/29 12:20:43;;;;;;;8.50;8.20;;;;;;;;;;5035485;28;20654;-62
2023/07/29 12:23:11;;;;;;;9.70;9.20;;;;;;;;;;5020404;28;20661;-63
2023/07/29 12:25:41;;;;;;;8.70;8.40;;;;;;;;;;5016374;28;20654;-62
2023/07/29 12:28:10;;;;;;;8.63;8.23;;;;;;;;;;5024246;28;21087;-62
2023/07/29 12:30:43;;;;;;;8.60;8.30;;;;;;;;;;5016562;28;20686;-62
2023/07/29 12:33:11;;;;;;;9.03;8.73;;;;;;;;;;5034669;28;21256;-62
2023/07/29 12:35:39;;;;;;;9.50;9.10;;;;;;;;;;5034040;28;20624;-62
2023/07/29 12:38:07;;;;;;;9.50;9.10;;;;;;;;;;5034760;28;20642;-62
2023/07/29 12:40:39;;;;;;;9.37;8.97;;;;;;;;;;5033967;28;20635;-63
2023/07/29 12:43:07;;;;;;;9.50;9.00;;;;;;;;;;5034244;28;20640;-62
2023/07/29 12:45:39;;;;;;;9.70;9.20;;;;;;;;;;5033040;28;20632;-62
2023/07/29 12:48:08;;;;;;;10.13;9.73;;;;;;;;;;5033402;28;20620;-62
2023/07/29 12:50:36;;;;;;;10.70;10.10;;;;;;;;;;5033194;28;20624;-62
2023/07/29 12:53:06;;;;;;;10.27;9.87;;;;;;;;;;5009954;28;20629;-62
2023/07/29 12:55:34;;;;;;;10.60;10.03;;;;;;;;;;5022242;28;21065;-64
2023/07/29 12:58:02;;;;;;;10.40;9.70;;;;;;;;;;5011589;28;20628;-64
2023/07/29 13:00:30;;;;;;;10.30;9.90;;;;;;;;;;5024649;28;20681;-66
2023/07/29 13:03:00;;;;;;;9.67;9.37;;;;;;;;;;5031172;28;21017;-63
2023/07/29 13:05:28;;;;;;;10.23;9.73;;;;;;;;;;5025035;28;20628;-63
2023/07/29 13:07:56;;;;;;;10.90;10.30;;;;;;;;;;5007833;28;21014;-63
2023/07/29 13:10:24;;;;;;;9.90;9.50;;;;;;;;;;5029173;28;20675;-64
2023/07/29 13:12:53;;;;;;;10.23;9.83;;;;;;;;;;5027329;28;20670;-63
2023/07/29 13:15:21;;;;;;;11.13;10.73;;;;;;;;;;5026792;28;20624;-63
2023/07/29 13:17:49;;;;;;;10.80;10.40;;;;;;;;;;5027805;28;20639;-65
2023/07/29 13:20:19;;;;;;;10.20;9.90;;;;;;;;;;5012190;28;20978;-65
2023/07/29 13:22:47;;;;;;;10.80;10.40;;;;;;;;;;5033382;28;21240;-66
2023/07/29 13:25:15;;;;;;;11.40;10.90;;;;;;;;;;5030122;28;20636;-66
2023/07/29 13:27:43;;;;;;;11.80;11.17;;;;;;;;;;5032075;28;20670;-64
2023/07/29 13:30:12;;;;;;;11.20;10.80;;;;;;;;;;5028714;28;20711;-64
2023/07/29 13:32:40;;;;;;;10.73;10.33;;;;;;;;;;5033167;28;20624;-64
2023/07/29 13:35:08;;;;;;;11.20;10.50;;;;;;;;;;5028040;28;21015;-65
2023/07/29 13:37:38;;;;;;;10.90;10.50;;;;;;;;;;5017366;28;20651;-65
2023/07/29 13:40:07;;;;;;;12.10;11.20;;;;;;;;;;5028675;28;20654;-66
2023/07/29 13:42:35;;;;;;;11.90;11.40;;;;;;;;;;5026099;28;20662;-62
2023/07/29 13:45:04;;;;;;;12.00;11.50;;;;;;;;;;5026142;28;20616;-62
2023/07/29 13:47:32;;;;;;;12.30;11.80;;;;;;;;;;5037653;28;20711;-65
2023/07/29 13:50:00;;;;;;;12.40;11.83;;;;;;;;;;5036012;28;21222;-63
2023/07/29 13:52:29;;;;;;;12.57;11.97;;;;;;;;;;5013883;28;21261;-63
2023/07/29 13:54:58;;;;;;;12.70;12.17;;;;;;;;;;5033136;28;20626;-63
2023/07/29 13:57:26;;;;;;;13.00;12.50;;;;;;;;;;5035183;28;20624;-62
2023/07/29 13:59:55;;;;;;;13.07;12.57;;;;;;;;;;5029739;28;20726;-63
2023/07/29 14:02:23;;;;;;;13.57;12.97;;;;;;;;;;5031071;28;20965;-65
2023/07/29 14:04:51;;;;;;;12.97;12.47;;;;;;;;;;5035553;28;21296;-64
2023/07/29 14:07:22;;;;;;;13.07;12.57;;;;;;;;;;5035843;28;20661;-62
2023/07/29 14:09:50;;;;;;;13.03;12.50;;;;;;;;;;5036480;28;20766;-62
2023/07/29 14:12:20;;;;;;;12.73;12.17;;;;;;;;;;5031470;28;20711;-66
2023/07/29 14:14:48;;;;;;;12.90;12.40;;;;;;;;;;5026389;28;20615;-64
2023/07/29 14:17:16;;;;;;;12.73;12.23;;;;;;;;;;5014494;28;20624;-64
2023/07/29 14:19:45;;;;;;;13.50;12.80;;;;;;;;;;5032767;28;20624;-63
2023/07/29 14:22:13;;;;;;;12.70;12.20;;;;;;;;;;5018065;28;20696;-66
2023/07/29 14:24:41;;;;;;;13.30;12.80;;;;;;;;;;5027215;28;20663;-66
2023/07/29 14:27:09;;;;;;;13.27;12.77;;;;;;;;;;5029034;28;20640;-66
2023/07/29 14:29:39;;;;;;;13.50;13.00;;;;;;;;;;5022258;28;20726;-66
2023/07/29 14:32:07;;;;;;;13.47;12.97;;;;;;;;;;5027876;28;20639;-63
2023/07/29 14:34:36;;;;;;;13.47;12.97;;;;;;;;;;5025764;28;20632;-66
2023/07/29 14:37:04;;;;;;;13.53;13.03;;;;;;;;;;5021410;28;20719;-64
2023/07/29 14:39:32;;;;;;;13.90;13.37;;;;;;;;;;5014283;28;20651;-64
2023/07/29 14:42:01;;;;;;;14.00;13.40;;;;;;;;;;5022808;28;20706;-64
2023/07/29 14:44:29;;;;;;;14.23;13.63;;;;;;;;;;5013605;28;20694;-64
2023/07/29 14:46:58;;;;;;;13.03;12.53;;;;;;;;;;5016029;28;20707;-64
2023/07/29 14:49:27;;;;;;;13.47;12.87;;;;;;;;;;5012147;28;20623;-62
2023/07/29 14:51:55;;;;;;;13.07;12.57;;;;;;;;;;5024938;28;20634;-64